createdAt,value
2018-05-23T00:00:52.984Z,89.18
2018-05-23T00:03:21.510Z,88.97
2018-05-23T00:05:50.660Z,89.13
2018-05-23T00:08:19.900Z,89.32
2018-05-23T00:10:48.274Z,89.79
2018-05-23T00:13:16.762Z,90.16
2018-05-23T00:15:45.189Z,90.29
2018-05-23T00:18:13.573Z,90.40
2018-05-23T00:20:42.054Z,90.73
2018-05-23T00:23:10.433Z,91.29
2018-05-23T00:25:38.829Z,91.02
2018-05-23T00:28:07.266Z,91.02
2018-05-23T00:30:35.651Z,91.05
2018-05-23T00:33:04.053Z,90.98
2018-05-23T00:35:32.467Z,90.70
2018-05-23T00:38:00.900Z,90.81
2018-05-23T00:40:29.294Z,90.66
2018-05-23T00:42:57.697Z,90.75
2018-05-23T00:45:26.087Z,90.74
2018-05-23T00:47:54.494Z,90.91
2018-05-23T00:50:23.726Z,90.87
2018-05-23T00:52:52.034Z,90.84
2018-05-23T00:55:36.253Z,90.87
2018-05-23T00:58:04.748Z,90.80
2018-05-23T01:00:33.333Z,90.79
2018-05-23T01:03:01.810Z,90.70
2018-05-23T01:05:30.194Z,90.69
2018-05-23T01:07:58.612Z,90.60
2018-05-23T01:10:27.022Z,90.39
2018-05-23T01:12:55.550Z,90.51
2018-05-23T01:15:23.939Z,90.53
2018-05-23T01:17:52.339Z,90.54
2018-05-23T01:20:20.715Z,90.55
2018-05-23T01:22:49.095Z,90.70
2018-05-23T01:25:17.473Z,90.74
2018-05-23T01:27:45.863Z,90.65
2018-05-23T01:30:14.270Z,90.74
2018-05-23T01:32:42.660Z,90.81
2018-05-23T01:35:11.149Z,90.84
2018-05-23T01:37:39.528Z,90.93
2018-05-23T01:40:07.918Z,90.89
2018-05-23T01:42:36.303Z,91.00
2018-05-23T01:45:04.686Z,91.01
2018-05-23T01:47:33.114Z,90.99
2018-05-23T01:50:01.483Z,91.04
2018-05-23T01:52:30.637Z,91.30
2018-05-23T01:54:59.025Z,91.45
2018-05-23T01:57:27.417Z,91.36
2018-05-23T01:59:55.801Z,91.38
2018-05-23T02:02:24.193Z,91.71
2018-05-23T02:04:52.576Z,92.05
2018-05-23T02:07:20.976Z,92.17
2018-05-23T02:09:50.213Z,92.40
2018-05-23T02:12:18.748Z,92.68
2018-05-23T02:14:47.137Z,92.82
2018-05-23T02:17:16.282Z,93.59
2018-05-23T02:19:44.691Z,93.12
2018-05-23T02:22:13.113Z,93.57
2018-05-23T02:24:42.282Z,93.63
2018-05-23T02:27:10.683Z,93.54
2018-05-23T02:29:39.208Z,93.36
2018-05-23T02:32:07.604Z,93.43
2018-05-23T02:34:35.991Z,93.30
2018-05-23T02:37:04.394Z,93.48
2018-05-23T02:39:32.805Z,93.41
2018-05-23T02:42:01.250Z,93.12
2018-05-23T02:44:30.428Z,93.02
2018-05-23T02:46:58.836Z,93.23
2018-05-23T02:49:27.321Z,93.33
2018-05-23T02:51:56.477Z,93.58
2018-05-23T02:54:25.724Z,93.77
2018-05-23T02:56:54.133Z,93.76
2018-05-23T02:59:22.550Z,94.01
2018-05-23T03:01:51.732Z,94.08
2018-05-23T03:04:20.102Z,94.13
2018-05-23T03:06:48.495Z,94.22
2018-05-23T03:09:16.884Z,94.11
2018-05-23T03:11:45.289Z,94.13
2018-05-23T03:14:13.657Z,94.11
2018-05-23T03:16:42.810Z,93.98
2018-05-23T03:19:11.189Z,94.20
2018-05-23T03:21:39.582Z,94.21
2018-05-23T03:24:07.978Z,94.23
2018-05-23T03:26:36.378Z,94.26
2018-05-23T03:29:04.801Z,94.18
2018-05-23T03:31:33.179Z,94.14
2018-05-23T03:34:01.571Z,94.09
2018-05-23T03:36:29.958Z,94.03
2018-05-23T03:38:58.330Z,93.80
2018-05-23T03:41:26.721Z,93.91
2018-05-23T03:43:55.199Z,93.86
2018-05-23T03:46:23.660Z,93.89
2018-05-23T03:48:52.810Z,93.82
2018-05-23T03:51:21.250Z,93.92
2018-05-23T03:53:50.398Z,93.81
2018-05-23T03:56:18.796Z,93.77
2018-05-23T03:58:47.188Z,93.95
2018-05-23T04:01:33.409Z,93.83
2018-05-23T04:04:20.157Z,93.85
2018-05-23T04:09:59.854Z,93.82
2018-05-23T04:12:29.014Z,93.59
2018-05-23T04:14:57.422Z,93.73
2018-05-23T04:17:25.815Z,93.71
2018-05-23T04:19:55.017Z,93.60
2018-05-23T04:22:24.184Z,93.36
2018-05-23T04:24:52.653Z,93.37
2018-05-23T04:27:21.084Z,93.32
2018-05-23T04:29:49.390Z,92.96
2018-05-23T04:32:17.791Z,92.71
2018-05-23T04:34:46.237Z,92.75
2018-05-23T04:37:15.403Z,92.53
2018-05-23T04:39:43.809Z,92.45
2018-05-23T04:42:12.204Z,92.54
2018-05-23T04:44:41.435Z,92.43
2018-05-23T04:47:09.823Z,92.32
2018-05-23T04:49:38.253Z,92.12
2018-05-23T04:52:06.645Z,91.96
2018-05-23T04:54:35.034Z,91.64
2018-05-23T04:57:03.461Z,91.30
2018-05-23T04:59:31.852Z,90.97
2018-05-23T05:02:00.233Z,90.45
2018-05-23T05:04:28.651Z,90.13
2018-05-23T05:06:57.037Z,90.45
2018-05-23T05:09:25.572Z,90.84
2018-05-23T05:11:53.925Z,89.93
2018-05-23T05:14:23.075Z,90.39
2018-05-23T05:16:51.473Z,90.10
2018-05-23T05:19:19.874Z,89.92
2018-05-23T05:21:48.269Z,89.65
2018-05-23T05:24:16.673Z,89.62
2018-05-23T05:26:45.844Z,89.79
2018-05-23T05:29:14.313Z,89.64
2018-05-23T05:31:42.915Z,89.15
2018-05-23T05:34:12.003Z,88.64
2018-05-23T05:36:40.393Z,88.90
2018-05-23T05:39:08.773Z,89.37
2018-05-23T05:41:37.155Z,89.05
2018-05-23T05:44:06.329Z,89.46
2018-05-23T05:46:34.721Z,90.11
2018-05-23T05:49:03.129Z,90.75
2018-05-23T05:51:31.626Z,90.69
2018-05-23T05:54:00.042Z,89.94
2018-05-23T05:56:28.429Z,89.29
2018-05-23T05:58:56.849Z,88.60
2018-05-23T06:01:25.239Z,89.15
2018-05-23T06:03:53.613Z,88.87
2018-05-23T06:06:22.022Z,88.34
2018-05-23T06:08:50.414Z,88.37
2018-05-23T06:11:18.834Z,87.58
2018-05-23T06:13:47.242Z,87.92
2018-05-23T06:16:15.702Z,87.21
2018-05-23T06:18:44.106Z,85.38
2018-05-23T06:21:12.518Z,85.05
2018-05-23T06:23:40.987Z,86.78
2018-05-23T06:26:09.412Z,85.28
2018-05-23T06:28:38.589Z,86.47
2018-05-23T06:31:06.965Z,86.31
2018-05-23T06:33:35.358Z,85.81
2018-05-23T06:36:03.736Z,84.63
2018-05-23T06:38:32.150Z,83.87
2018-05-23T06:41:01.316Z,83.60
2018-05-23T06:43:29.795Z,82.58
2018-05-23T06:45:58.874Z,83.06
2018-05-23T06:48:27.265Z,81.83
2018-05-23T06:50:55.726Z,80.25
2018-05-23T06:53:24.201Z,79.84
2018-05-23T06:55:52.493Z,80.56
2018-05-23T06:58:20.894Z,80.27
2018-05-23T07:00:49.285Z,80.99
2018-05-23T07:03:17.701Z,78.96
2018-05-23T07:05:46.187Z,77.46
2018-05-23T07:08:15.254Z,78.76
2018-05-23T07:10:43.649Z,78.40
2018-05-23T07:13:12.894Z,77.65
2018-05-23T07:15:42.057Z,78.04
2018-05-23T07:18:11.298Z,80.38
2018-05-23T07:20:39.614Z,77.16
2018-05-23T07:23:07.989Z,77.07
2018-05-23T07:25:36.393Z,75.30
2018-05-23T07:28:05.541Z,74.09
2018-05-23T07:30:34.694Z,72.45
2018-05-23T07:33:03.080Z,71.57
2018-05-23T07:35:31.474Z,72.03
2018-05-23T07:38:01.452Z,70.68
2018-05-23T07:40:29.827Z,69.94
2018-05-23T07:42:58.257Z,63.69
2018-05-23T07:45:26.648Z,62.85
2018-05-23T07:47:55.059Z,59.85
2018-05-23T07:50:24.219Z,57.78
2018-05-23T07:52:52.591Z,58.85
2018-05-23T07:55:21.004Z,57.44
2018-05-23T07:57:49.445Z,56.96
2018-05-23T08:00:17.981Z,58.44
2018-05-23T08:02:46.385Z,57.67
2018-05-23T08:05:15.518Z,57.99
2018-05-23T08:07:43.920Z,59.85
2018-05-23T08:10:12.323Z,62.75
2018-05-23T08:12:40.730Z,60.80
2018-05-23T08:15:09.926Z,58.65
2018-05-23T08:17:39.097Z,61.94
2018-05-23T08:20:07.492Z,59.50
2018-05-23T08:22:35.901Z,60.96
2018-05-23T08:25:05.096Z,58.34
2018-05-23T08:27:33.525Z,57.55
2018-05-23T08:30:01.919Z,55.01
2018-05-23T08:32:30.517Z,51.38
2018-05-23T08:34:58.926Z,49.67
2018-05-23T08:37:27.329Z,49.84
2018-05-23T08:39:56.558Z,49.35
2018-05-23T08:42:24.974Z,46.71
2018-05-23T08:44:53.422Z,47.24
2018-05-23T08:47:21.840Z,47.11
2018-05-23T08:49:50.225Z,45.78
2018-05-23T08:52:18.595Z,44.23
2018-05-23T08:54:47.010Z,45.33
2018-05-23T08:57:15.422Z,37.77
2018-05-23T08:59:44.615Z,43.44
2018-05-23T09:02:13.059Z,45.51
2018-05-23T09:04:41.497Z,46.95
2018-05-23T09:07:10.645Z,46.26
2018-05-23T09:09:39.094Z,46.35
2018-05-23T09:12:07.625Z,44.30
2018-05-23T09:14:36.745Z,43.75
2018-05-23T09:17:05.166Z,43.76
2018-05-23T09:19:34.395Z,44.91
2018-05-23T09:22:02.819Z,48.13
2018-05-23T09:24:32.024Z,45.78
2018-05-23T09:27:01.192Z,46.44
2018-05-23T09:29:29.613Z,45.91
2018-05-23T09:31:58.902Z,44.56
2018-05-23T09:34:27.298Z,44.29
2018-05-23T09:36:56.470Z,41.38
2018-05-23T09:39:24.861Z,42.48
2018-05-23T09:41:53.310Z,41.72
2018-05-23T09:44:21.689Z,40.74
2018-05-23T09:46:50.067Z,42.45
2018-05-23T09:49:18.449Z,39.86
2018-05-23T09:51:46.832Z,38.66
2018-05-23T09:54:15.253Z,37.46
2018-05-23T09:56:43.648Z,36.65
2018-05-23T09:59:12.048Z,37.53
2018-05-23T10:01:41.206Z,37.70
2018-05-23T10:04:09.609Z,38.84
2018-05-23T10:06:38.005Z,34.02
2018-05-23T10:09:06.444Z,35.51
2018-05-23T10:11:34.833Z,38.07
2018-05-23T10:14:03.213Z,37.18
2018-05-23T10:16:31.672Z,37.38
2018-05-23T10:19:00.060Z,40.50
2018-05-23T10:21:28.460Z,42.81
2018-05-23T10:23:56.854Z,43.75
2018-05-23T10:26:25.352Z,43.65
2018-05-23T10:28:53.648Z,44.11
2018-05-23T10:31:22.032Z,45.50
2018-05-23T10:33:50.449Z,47.95
2018-05-23T10:36:19.605Z,47.05
2018-05-23T10:38:47.991Z,46.13
2018-05-23T10:41:17.157Z,46.27
2018-05-23T10:43:45.637Z,46.94
2018-05-23T10:46:14.099Z,46.70
2018-05-23T10:48:42.465Z,46.11
2018-05-23T10:51:10.835Z,45.95
2018-05-23T10:53:39.285Z,48.59
2018-05-23T10:56:07.663Z,46.04
2018-05-23T10:58:36.140Z,47.23
2018-05-23T11:01:04.518Z,48.36
2018-05-23T11:03:32.969Z,49.56
2018-05-23T11:06:02.320Z,47.98
2018-05-23T11:08:30.540Z,49.71
2018-05-23T11:10:58.919Z,49.82
2018-05-23T11:13:27.329Z,50.15
2018-05-23T11:15:56.484Z,49.62
2018-05-23T11:18:24.912Z,50.55
2018-05-23T11:20:53.373Z,50.44
2018-05-23T11:23:21.775Z,49.83
2018-05-23T11:25:50.193Z,50.21
2018-05-23T11:28:18.586Z,52.69
2018-05-23T11:30:46.986Z,51.68
2018-05-23T11:33:15.386Z,51.90
2018-05-23T11:35:43.813Z,52.99
2018-05-23T11:38:12.969Z,57.69
2018-05-23T11:40:41.345Z,56.98
2018-05-23T11:43:14.673Z,57.46
2018-05-23T11:45:43.054Z,59.92
2018-05-23T11:48:11.432Z,59.72
2018-05-23T11:50:39.809Z,62.82
2018-05-23T11:53:08.200Z,60.49
2018-05-23T11:55:36.590Z,65.19
2018-05-23T11:58:05.776Z,65.68
2018-05-23T12:00:34.225Z,63.47
2018-05-23T12:03:02.632Z,64.65
2018-05-23T12:05:31.042Z,62.93
2018-05-23T12:07:59.447Z,66.11
2018-05-23T12:10:28.641Z,65.41
2018-05-23T12:12:56.987Z,67.70
2018-05-23T12:15:25.406Z,66.24
2018-05-23T12:17:54.553Z,64.41
2018-05-23T12:20:22.978Z,67.50
2018-05-23T12:22:51.357Z,63.82
2018-05-23T12:25:19.782Z,65.61
2018-05-23T12:27:48.154Z,64.62
2018-05-23T12:30:17.309Z,65.15
2018-05-23T12:32:45.771Z,64.23
2018-05-23T12:35:14.257Z,65.94
2018-05-23T12:37:42.669Z,66.12
2018-05-23T12:40:11.144Z,67.64
2018-05-23T12:42:39.560Z,67.62
2018-05-23T12:45:08.710Z,66.91
2018-05-23T12:47:37.114Z,63.48
2018-05-23T12:50:05.544Z,65.34
2018-05-23T12:52:33.945Z,63.06
2018-05-23T12:55:02.389Z,62.32
2018-05-23T12:57:30.785Z,62.00
2018-05-23T12:59:59.956Z,60.68
2018-05-23T13:02:28.331Z,60.09
2018-05-23T13:04:56.711Z,60.11
2018-05-23T13:07:25.135Z,57.52
2018-05-23T13:09:54.273Z,59.66
2018-05-23T13:12:22.799Z,60.57
2018-05-23T13:14:51.210Z,60.79
2018-05-23T13:17:20.422Z,59.32
2018-05-23T13:19:48.801Z,60.09
2018-05-23T13:22:17.967Z,60.89
2018-05-23T13:24:46.352Z,60.71
2018-05-23T13:27:14.743Z,60.96
2018-05-23T13:29:43.134Z,60.27
2018-05-23T13:32:12.327Z,58.07
2018-05-23T13:34:40.733Z,59.09
2018-05-23T13:37:09.973Z,57.79
2018-05-23T13:39:38.436Z,58.05
2018-05-23T13:42:06.927Z,59.29
2018-05-23T13:44:35.329Z,57.72
2018-05-23T13:47:03.718Z,56.30
2018-05-23T13:49:32.151Z,57.14
2018-05-23T13:52:01.337Z,55.55
2018-05-23T13:54:29.727Z,55.74
2018-05-23T13:56:58.917Z,54.82
2018-05-23T13:59:27.304Z,54.59
2018-05-23T14:01:55.844Z,53.11
2018-05-23T14:04:24.134Z,53.22
2018-05-23T14:06:52.518Z,53.58
2018-05-23T14:09:20.877Z,50.04
2018-05-23T14:11:49.274Z,48.17
2018-05-23T14:14:17.660Z,47.38
2018-05-23T14:16:46.098Z,46.96
2018-05-23T14:19:15.253Z,47.32
2018-05-23T14:21:43.611Z,50.26
2018-05-23T14:24:12.014Z,51.79
2018-05-23T14:26:40.430Z,50.99
2018-05-23T14:29:08.802Z,51.58
2018-05-23T14:31:37.938Z,50.66
2018-05-23T14:34:07.117Z,47.02
2018-05-23T14:36:35.553Z,46.19
2018-05-23T14:39:03.916Z,45.92
2018-05-23T14:41:33.051Z,46.81
2018-05-23T14:44:01.467Z,49.42
2018-05-23T14:46:29.841Z,49.54
2018-05-23T14:48:58.233Z,50.77
2018-05-23T14:51:26.612Z,51.91
2018-05-23T14:53:55.009Z,52.51
2018-05-23T14:56:23.390Z,54.70
2018-05-23T14:58:51.766Z,51.40
2018-05-23T15:01:20.177Z,48.96
2018-05-23T15:03:49.354Z,49.05
2018-05-23T15:06:17.887Z,47.56
2018-05-23T15:08:46.211Z,47.74
2018-05-23T15:11:14.602Z,50.15
2018-05-23T15:13:42.983Z,48.23
2018-05-23T15:16:11.356Z,45.46
2018-05-23T15:18:39.749Z,47.57
2018-05-23T15:21:08.185Z,45.79
2018-05-23T15:23:36.572Z,44.52
2018-05-23T15:26:04.967Z,46.79
2018-05-23T15:28:33.358Z,46.74
2018-05-23T15:31:01.738Z,45.34
2018-05-23T15:33:30.211Z,45.29
2018-05-23T15:35:58.631Z,43.14
2018-05-23T15:38:27.034Z,42.97
2018-05-23T15:40:55.496Z,43.90
2018-05-23T15:43:24.656Z,44.33
2018-05-23T15:45:53.030Z,48.52
2018-05-23T15:48:22.187Z,50.56
2018-05-23T15:50:50.618Z,52.23
2018-05-23T15:53:19.015Z,52.01
2018-05-23T15:55:47.447Z,52.19
2018-05-23T15:58:15.834Z,53.29
2018-05-23T16:00:44.269Z,52.66
2018-05-23T16:03:12.706Z,51.76
2018-05-23T16:05:41.104Z,51.79
2018-05-23T16:08:10.257Z,51.85
2018-05-23T16:10:38.647Z,53.06
2018-05-23T16:13:07.040Z,51.39
2018-05-23T16:15:35.426Z,51.17
2018-05-23T16:18:03.824Z,51.36
2018-05-23T16:20:32.267Z,50.83
2018-05-23T16:23:01.396Z,51.54
2018-05-23T16:25:29.782Z,53.00
2018-05-23T16:27:58.958Z,52.04
2018-05-23T16:30:27.355Z,51.88
2018-05-23T16:32:55.730Z,51.25
2018-05-23T16:35:24.115Z,52.39
2018-05-23T16:37:52.548Z,52.53
2018-05-23T16:40:21.710Z,52.31
2018-05-23T16:42:50.193Z,53.20
2018-05-23T16:45:18.558Z,52.09
2018-05-23T16:47:46.949Z,54.42
2018-05-23T16:50:15.441Z,52.48
2018-05-23T16:52:43.887Z,52.44
2018-05-23T16:55:12.286Z,53.23
2018-05-23T16:57:40.767Z,52.73
2018-05-23T17:00:09.266Z,53.63
2018-05-23T17:02:37.642Z,53.46
2018-05-23T17:05:06.093Z,52.87
2018-05-23T17:07:34.518Z,53.80
2018-05-23T17:10:03.687Z,53.83
2018-05-23T17:12:32.132Z,53.46
2018-05-23T17:15:00.497Z,53.17
2018-05-23T17:17:28.888Z,53.89
2018-05-23T17:19:57.266Z,52.51
2018-05-23T17:22:25.743Z,54.27
2018-05-23T17:24:54.131Z,54.52
2018-05-23T17:27:23.285Z,53.59
2018-05-23T17:29:52.412Z,54.36
2018-05-23T17:32:20.966Z,53.75
2018-05-23T17:34:50.156Z,54.21
2018-05-23T17:37:19.324Z,53.47
2018-05-23T17:39:47.707Z,53.20
2018-05-23T17:42:16.087Z,55.24
2018-05-23T17:44:44.504Z,52.77
2018-05-23T17:47:13.714Z,52.54
2018-05-23T17:49:42.892Z,53.79
2018-05-23T17:52:11.282Z,53.16
2018-05-23T17:54:39.722Z,52.46
2018-05-23T17:57:08.190Z,53.41
2018-05-23T17:59:36.542Z,52.97
2018-05-23T18:02:04.919Z,52.97
2018-05-23T18:04:33.323Z,51.69
2018-05-23T18:07:02.484Z,52.89
2018-05-23T18:09:30.867Z,54.36
2018-05-23T18:11:59.262Z,53.34
2018-05-23T18:14:27.644Z,52.96
2018-05-23T18:16:56.021Z,50.92
2018-05-23T18:19:24.403Z,51.19
2018-05-23T18:21:52.859Z,51.46
2018-05-23T18:24:22.010Z,51.54
2018-05-23T18:26:51.174Z,50.83
2018-05-23T18:29:19.662Z,50.50
2018-05-23T18:31:47.975Z,50.16
2018-05-23T18:34:16.375Z,50.15
2018-05-23T18:36:45.527Z,49.72
2018-05-23T18:39:13.945Z,50.26
2018-05-23T18:41:43.134Z,51.72
2018-05-23T18:44:11.613Z,51.70
2018-05-23T18:46:40.004Z,51.80
2018-05-23T18:49:08.413Z,51.67
2018-05-23T18:51:37.573Z,50.73
2018-05-23T18:54:05.962Z,51.52
2018-05-23T18:56:34.384Z,52.06
2018-05-23T18:59:03.594Z,51.20
2018-05-23T19:01:32.013Z,52.44
2018-05-23T19:04:00.392Z,51.89
2018-05-23T19:06:28.794Z,51.64
2018-05-23T19:08:58.014Z,50.94
2018-05-23T19:11:26.436Z,50.19
2018-05-23T19:13:54.860Z,51.17
2018-05-23T19:16:23.211Z,51.96
2018-05-23T19:18:51.637Z,51.08
2018-05-23T19:21:20.053Z,51.09
2018-05-23T19:23:49.226Z,50.86
2018-05-23T19:26:17.657Z,51.04
2018-05-23T19:28:46.067Z,51.82
2018-05-23T19:31:14.471Z,51.91
2018-05-23T19:33:42.867Z,52.08
2018-05-23T19:36:11.233Z,53.76
2018-05-23T19:38:39.629Z,52.27
2018-05-23T19:41:08.020Z,52.27
2018-05-23T19:43:36.482Z,53.24
2018-05-23T19:46:05.015Z,53.58
2018-05-23T19:48:34.170Z,53.63
2018-05-23T19:51:02.571Z,52.85
2018-05-23T19:53:30.959Z,53.49
2018-05-23T19:55:59.362Z,53.47
2018-05-23T19:58:28.554Z,53.56
2018-05-23T20:00:57.720Z,54.36
2018-05-23T20:03:26.866Z,55.19
2018-05-23T20:05:56.037Z,56.67
2018-05-23T20:08:24.419Z,55.66
2018-05-23T20:10:52.803Z,54.70
2018-05-23T20:13:21.215Z,55.79
2018-05-23T20:15:50.501Z,56.32
2018-05-23T20:18:18.894Z,56.62
2018-05-23T20:20:48.201Z,57.04
2018-05-23T20:23:16.520Z,56.77
2018-05-23T20:25:44.938Z,57.47
2018-05-23T20:28:13.354Z,57.52
2018-05-23T20:30:42.580Z,56.86
2018-05-23T20:33:10.941Z,57.57
2018-05-23T20:35:40.114Z,59.50
2018-05-23T20:38:08.526Z,59.79
2018-05-23T20:40:37.873Z,59.75
2018-05-23T20:43:06.366Z,59.75
2018-05-23T20:45:35.522Z,60.84
2018-05-23T20:48:04.694Z,60.13
2018-05-23T20:50:33.262Z,61.52
2018-05-23T20:53:01.641Z,61.26
2018-05-23T20:55:30.011Z,60.40
2018-05-23T20:57:58.385Z,60.55
2018-05-23T21:00:26.797Z,59.94
2018-05-23T21:02:55.188Z,59.67
2018-05-23T21:05:23.661Z,58.16
2018-05-23T21:07:52.741Z,57.95
2018-05-23T21:10:21.174Z,58.77
2018-05-23T21:12:49.577Z,58.82
2018-05-23T21:15:18.727Z,58.21
2018-05-23T21:17:48.137Z,57.88
2018-05-23T21:20:16.543Z,57.24
2018-05-23T21:22:45.961Z,57.16
2018-05-23T21:25:14.379Z,57.54
2018-05-23T21:27:42.805Z,58.05
2018-05-23T21:30:11.150Z,57.49
2018-05-23T21:32:39.744Z,57.42
2018-05-23T21:35:08.149Z,57.84
2018-05-23T21:37:36.562Z,57.60
2018-05-23T21:40:04.981Z,57.11
2018-05-23T21:42:33.364Z,57.14
2018-05-23T21:45:01.800Z,56.53
2018-05-23T21:47:30.181Z,58.10
2018-05-23T21:49:58.582Z,59.29
2018-05-23T21:52:26.958Z,58.90
2018-05-23T21:54:55.343Z,59.92
2018-05-23T21:57:23.777Z,60.65
2018-05-23T21:59:52.157Z,60.58
2018-05-23T22:02:20.576Z,60.62
2018-05-23T22:04:48.973Z,61.36
2018-05-23T22:07:17.413Z,62.45
2018-05-23T22:09:45.821Z,62.72
2018-05-23T22:12:14.968Z,62.69
2018-05-23T22:14:44.163Z,62.73
2018-05-23T22:17:13.303Z,62.53
2018-05-23T22:19:41.764Z,63.22
2018-05-23T22:22:10.158Z,63.41
2018-05-23T22:24:38.581Z,62.48
2018-05-23T22:27:07.053Z,63.31
2018-05-23T22:29:35.615Z,63.79
2018-05-23T22:32:04.034Z,65.05
2018-05-23T22:34:32.770Z,64.58
2018-05-23T22:37:02.002Z,65.08
2018-05-23T22:39:30.418Z,65.27
2018-05-23T22:41:58.848Z,65.58
2018-05-23T22:44:28.036Z,66.34
2018-05-23T22:46:57.291Z,67.18
2018-05-23T22:49:25.810Z,67.53
2018-05-23T22:51:54.327Z,67.84
2018-05-23T22:54:22.800Z,68.32
2018-05-23T22:56:52.138Z,69.00
2018-05-23T22:59:20.562Z,68.67
2018-05-23T23:01:49.031Z,69.03
2018-05-23T23:04:18.246Z,69.67
2018-05-23T23:06:46.726Z,70.37
2018-05-23T23:09:15.223Z,71.03
2018-05-23T23:11:44.587Z,71.33
2018-05-23T23:14:13.024Z,71.64
2018-05-23T23:16:41.483Z,72.01
2018-05-23T23:19:10.021Z,72.43
2018-05-23T23:21:39.345Z,72.74
2018-05-23T23:24:08.058Z,73.40
2018-05-23T23:26:36.525Z,73.27
2018-05-23T23:29:05.667Z,73.41
2018-05-23T23:31:34.401Z,73.48
2018-05-23T23:34:02.826Z,73.47
2018-05-23T23:36:31.276Z,73.35
2018-05-23T23:38:59.773Z,73.88
2018-05-23T23:41:28.385Z,74.45
2018-05-23T23:43:56.809Z,73.83
2018-05-23T23:46:26.032Z,73.35
2018-05-23T23:48:54.467Z,72.09
2018-05-23T23:51:22.974Z,72.68
2018-05-23T23:53:52.388Z,72.99
2018-05-23T23:56:21.619Z,71.47
2018-05-23T23:58:50.146Z,71.21
